Time;durP1;ratioP1;P1;durP2;ratioP2;P2;SDS_P1;SDS_P2;PMS_P1;PMS_P2;Temp;Humidity;BMP_temperature;BMP_pressure;BME280_temperature;BME280_humidity;BME280_pressure;Samples;Min_cycle;Max_cycle;Signal;HPM_P1;HPM_P2
2021/08/11 00:02:21;;;;;;;10.18;6.85;;;;;;;;;;4358889;32;20201;-83
2021/08/11 00:04:47;;;;;;;10.60;7.12;;;;;;;;;;4359052;32;20163;-83
2021/08/11 00:07:12;;;;;;;11.70;7.78;;;;;;;;;;4358649;32;20230;-83
2021/08/11 00:09:37;;;;;;;12.35;8.50;;;;;;;;;;4358368;33;20182;-83
2021/08/11 00:12:03;;;;;;;15.38;8.38;;;;;;;;;;4358772;32;20182;-83
2021/08/11 00:14:28;;;;;;;12.85;7.87;;;;;;;;;;4358388;32;20214;-83
2021/08/11 00:16:53;;;;;;;11.77;7.85;;;;;;;;;;4359103;32;20458;-84
2021/08/11 00:19:19;;;;;;;12.40;8.40;;;;;;;;;;4358305;33;20210;-84
2021/08/11 00:21:47;;;;;;;12.43;8.45;;;;;;;;;;4358415;32;20513;-84
2021/08/11 00:24:16;;;;;;;14.98;8.55;;;;;;;;;;4358666;32;20178;-84
2021/08/11 00:26:41;;;;;;;12.35;8.95;;;;;;;;;;4346310;33;20185;-84
2021/08/11 00:29:06;;;;;;;12.43;9.57;;;;;;;;;;4358453;32;20159;-84
2021/08/11 00:31:33;;;;;;;13.45;8.77;;;;;;;;;;4347908;32;20143;-84
2021/08/11 00:34:00;;;;;;;13.23;9.27;;;;;;;;;;4358310;32;20269;-84
2021/08/11 00:36:28;;;;;;;16.10;9.65;;;;;;;;;;4358150;33;20163;-84
2021/08/11 00:38:56;;;;;;;14.30;9.35;;;;;;;;;;4358181;32;20171;-85
2021/08/11 00:41:22;;;;;;;12.77;8.73;;;;;;;;;;4346247;33;20164;-85
2021/08/11 00:43:48;;;;;;;17.62;10.55;;;;;;;;;;4345724;33;20172;-84
2021/08/11 00:46:13;;;;;;;13.95;9.65;;;;;;;;;;4357207;32;20250;-84
2021/08/11 00:48:39;;;;;;;17.30;10.50;;;;;;;;;;4357719;33;20225;-85
2021/08/11 00:51:05;;;;;;;17.65;10.07;;;;;;;;;;4358234;33;20186;-85
2021/08/11 00:53:31;;;;;;;13.27;9.95;;;;;;;;;;4358416;32;20230;-85
2021/08/11 00:55:58;;;;;;;15.50;10.00;;;;;;;;;;4345455;33;20163;-85
2021/08/11 00:58:24;;;;;;;16.98;9.48;;;;;;;;;;4346837;33;20139;-85
2021/08/11 01:00:52;;;;;;;16.12;10.15;;;;;;;;;;4358036;32;20159;-83
2021/08/11 01:03:18;;;;;;;14.02;10.27;;;;;;;;;;4345206;33;20189;-83
2021/08/11 01:05:44;;;;;;;18.50;12.77;;;;;;;;;;4345294;33;20159;-84
2021/08/11 01:08:11;;;;;;;16.58;10.90;;;;;;;;;;4345315;33;20195;-85
2021/08/11 01:10:47;;;;;;;19.23;11.35;;;;;;;;;;4345374;33;20175;-85
2021/08/11 01:13:13;;;;;;;16.35;11.05;;;;;;;;;;4345548;33;20151;-85
2021/08/11 01:15:45;;;;;;;15.73;11.35;;;;;;;;;;4345335;33;20217;-85
2021/08/11 01:18:13;;;;;;;17.67;11.40;;;;;;;;;;4345344;33;20639;-85
2021/08/11 01:20:40;;;;;;;17.30;11.35;;;;;;;;;;4345445;33;20156;-85
2021/08/11 01:23:08;;;;;;;16.45;10.77;;;;;;;;;;4345350;33;20230;-85
2021/08/11 01:25:36;;;;;;;19.25;11.05;;;;;;;;;;4345420;33;20190;-84
2021/08/11 01:28:19;;;;;;;19.27;12.27;;;;;;;;;;4345815;33;20189;-85
2021/08/11 01:30:48;;;;;;;15.75;10.38;;;;;;;;;;4345561;33;20171;-85
2021/08/11 01:33:33;;;;;;;19.27;12.07;;;;;;;;;;4345875;33;20209;-85
2021/08/11 01:36:12;;;;;;;16.77;11.55;;;;;;;;;;4346133;33;20217;-85
2021/08/11 01:38:38;;;;;;;18.33;11.23;;;;;;;;;;4345857;33;20158;-87
2021/08/11 01:41:05;;;;;;;17.05;11.70;;;;;;;;;;4345820;33;20163;-84
2021/08/11 01:43:33;;;;;;;17.00;10.93;;;;;;;;;;4347961;33;20163;-87
2021/08/11 01:45:59;;;;;;;15.80;10.15;;;;;;;;;;4346105;33;20214;-85
2021/08/11 01:48:28;;;;;;;17.77;11.10;;;;;;;;;;4354346;33;20585;-86
2021/08/11 01:50:57;;;;;;;18.17;11.02;;;;;;;;;;4348038;33;20209;-85
2021/08/11 01:53:24;;;;;;;16.62;11.32;;;;;;;;;;4348496;33;20155;-85
2021/08/11 01:55:53;;;;;;;17.90;11.45;;;;;;;;;;4347931;32;20194;-85
2021/08/11 01:58:24;;;;;;;15.25;10.27;;;;;;;;;;4359345;32;20163;-85
2021/08/11 02:00:51;;;;;;;17.00;9.98;;;;;;;;;;4347117;33;20224;-85
2021/08/11 02:03:20;;;;;;;15.65;9.93;;;;;;;;;;4345710;33;20162;-85
2021/08/11 02:05:47;;;;;;;16.48;11.18;;;;;;;;;;4332392;33;20206;-84
2021/08/11 02:08:14;;;;;;;15.10;9.32;;;;;;;;;;4332867;33;20222;-84
2021/08/11 02:10:40;;;;;;;16.17;10.55;;;;;;;;;;4332409;33;20207;-84
2021/08/11 02:13:05;;;;;;;17.58;10.77;;;;;;;;;;4345813;33;20639;-84
2021/08/11 02:15:31;;;;;;;18.45;11.57;;;;;;;;;;4332382;33;20159;-84
2021/08/11 02:17:57;;;;;;;17.15;11.52;;;;;;;;;;4332879;33;20496;-84
2021/08/11 02:20:23;;;;;;;21.95;11.98;;;;;;;;;;4344728;33;20159;-84
2021/08/11 02:22:49;;;;;;;17.77;11.27;;;;;;;;;;4332244;33;20217;-84
2021/08/11 02:25:15;;;;;;;21.95;11.98;;;;;;;;;;4331970;33;20254;-84
2021/08/11 02:27:56;;;;;;;19.92;12.70;;;;;;;;;;4344421;33;20250;-83
2021/08/11 02:30:36;;;;;;;24.15;13.57;;;;;;;;;;4332537;33;20168;-84
2021/08/11 02:33:10;;;;;;;21.98;12.85;;;;;;;;;;4332555;33;20194;-84
2021/08/11 02:35:45;;;;;;;22.75;14.13;;;;;;;;;;4332142;33;20615;-83
2021/08/11 02:38:20;;;;;;;22.52;13.45;;;;;;;;;;4332812;33;20155;-83
2021/08/11 02:40:49;;;;;;;24.02;15.02;;;;;;;;;;4345828;33;20151;-84
2021/08/11 02:43:21;;;;;;;26.77;15.18;;;;;;;;;;4331942;33;20178;-83
2021/08/11 02:45:50;;;;;;;22.33;14.02;;;;;;;;;;4331979;33;20186;-83
2021/08/11 02:48:16;;;;;;;25.08;15.27;;;;;;;;;;4344057;33;20193;-83
2021/08/11 02:50:42;;;;;;;22.50;14.52;;;;;;;;;;4344320;33;20564;-84
2021/08/11 02:53:09;;;;;;;23.90;14.38;;;;;;;;;;4332156;33;20163;-83
2021/08/11 02:55:37;;;;;;;23.20;13.90;;;;;;;;;;4331671;33;20162;-84
2021/08/11 02:58:02;;;;;;;26.52;15.95;;;;;;;;;;4332065;33;20201;-84
2021/08/11 03:00:28;;;;;;;24.67;14.73;;;;;;;;;;4345314;33;20136;-84
2021/08/11 03:02:53;;;;;;;24.02;15.48;;;;;;;;;;4331941;33;20159;-84
2021/08/11 03:05:19;;;;;;;29.23;16.60;;;;;;;;;;4332000;33;20194;-83
2021/08/11 03:07:45;;;;;;;33.88;18.30;;;;;;;;;;4345816;33;20167;-84
2021/08/11 03:10:11;;;;;;;30.08;15.35;;;;;;;;;;4334363;33;20163;-84
2021/08/11 03:12:37;;;;;;;28.42;17.15;;;;;;;;;;4334599;33;20667;-83
2021/08/11 03:15:04;;;;;;;34.42;17.90;;;;;;;;;;4334545;33;20159;-84
2021/08/11 03:17:30;;;;;;;30.35;16.83;;;;;;;;;;4334323;33;20661;-84
2021/08/11 03:19:55;;;;;;;38.25;19.73;;;;;;;;;;4348700;33;20127;-85
2021/08/11 03:22:20;;;;;;;32.67;17.10;;;;;;;;;;4335271;33;20163;-83
2021/08/11 03:24:46;;;;;;;33.75;18.73;;;;;;;;;;4335597;33;20528;-84
2021/08/11 03:27:11;;;;;;;35.45;19.52;;;;;;;;;;4335485;33;20247;-84
2021/08/11 03:29:36;;;;;;;37.55;18.62;;;;;;;;;;4335297;33;20159;-84
2021/08/11 03:32:10;;;;;;;36.63;19.12;;;;;;;;;;4335272;33;20183;-82
2021/08/11 03:34:42;;;;;;;39.67;19.37;;;;;;;;;;4336562;33;20155;-83
2021/08/11 03:37:07;;;;;;;43.78;21.92;;;;;;;;;;4336227;33;20596;-83
2021/08/11 03:39:33;;;;;;;41.97;20.17;;;;;;;;;;4335400;33;20164;-82
2021/08/11 03:42:01;;;;;;;41.63;19.75;;;;;;;;;;4335142;33;20162;-84
2021/08/11 03:44:27;;;;;;;45.45;22.08;;;;;;;;;;4338873;33;20178;-83
2021/08/11 03:46:52;;;;;;;36.83;20.27;;;;;;;;;;4348937;33;20186;-82
2021/08/11 03:49:19;;;;;;;45.25;21.83;;;;;;;;;;4361212;32;20171;-82
2021/08/11 03:51:44;;;;;;;45.22;23.20;;;;;;;;;;4348872;32;20158;-82
2021/08/11 03:54:38;;;;;;;47.45;22.85;;;;;;;;;;4348421;33;20525;-82
2021/08/11 03:57:03;;;;;;;50.75;23.23;;;;;;;;;;4361066;32;20159;-82
2021/08/11 03:59:32;;;;;;;44.70;23.30;;;;;;;;;;4348351;33;20221;-84
2021/08/11 04:02:03;;;;;;;53.20;23.67;;;;;;;;;;4361125;32;20163;-84
2021/08/11 04:04:28;;;;;;;50.70;25.27;;;;;;;;;;4348890;33;20150;-82
2021/08/11 04:06:57;;;;;;;60.58;27.23;;;;;;;;;;4348855;33;20185;-85
2021/08/11 04:09:22;;;;;;;52.97;26.25;;;;;;;;;;4348953;33;20185;-84
2021/08/11 04:11:48;;;;;;;56.80;27.48;;;;;;;;;;4348641;33;20167;-83
2021/08/11 04:14:16;;;;;;;53.55;23.95;;;;;;;;;;4361337;32;20166;-82
2021/08/11 04:16:41;;;;;;;53.47;24.30;;;;;;;;;;4348331;33;20175;-84
2021/08/11 04:19:15;;;;;;;49.58;22.65;;;;;;;;;;4360743;32;20159;-83
2021/08/11 04:21:41;;;;;;;55.38;25.60;;;;;;;;;;4349203;33;20548;-83
2021/08/11 04:24:07;;;;;;;58.67;26.75;;;;;;;;;;4348324;33;20239;-84
2021/08/11 04:26:33;;;;;;;48.67;24.65;;;;;;;;;;4348345;33;20205;-83
2021/08/11 04:28:58;;;;;;;51.90;25.80;;;;;;;;;;4348982;33;20596;-82
2021/08/11 04:31:23;;;;;;;52.20;25.00;;;;;;;;;;4360553;32;20167;-82
2021/08/11 04:33:49;;;;;;;49.10;23.70;;;;;;;;;;4362029;32;20549;-83
2021/08/11 04:36:15;;;;;;;54.90;24.98;;;;;;;;;;4360620;32;20171;-83
2021/08/11 04:38:40;;;;;;;51.25;23.52;;;;;;;;;;4362477;32;20127;-82
2021/08/11 04:41:05;;;;;;;53.10;23.35;;;;;;;;;;4348589;33;20182;-83
2021/08/11 04:43:30;;;;;;;53.92;25.40;;;;;;;;;;4348282;33;20189;-83
2021/08/11 04:46:08;;;;;;;47.28;23.87;;;;;;;;;;4361910;33;20151;-83
2021/08/11 04:48:37;;;;;;;50.00;23.65;;;;;;;;;;4361633;32;20662;-83
2021/08/11 04:51:12;;;;;;;53.42;25.45;;;;;;;;;;4347991;33;20228;-83
2021/08/11 04:53:42;;;;;;;53.05;24.65;;;;;;;;;;4357693;32;20151;-82
2021/08/11 04:56:20;;;;;;;40.28;20.52;;;;;;;;;;4345780;33;20205;-82
2021/08/11 04:58:52;;;;;;;40.75;20.67;;;;;;;;;;4345913;33;20185;-82
2021/08/11 05:01:19;;;;;;;41.90;21.40;;;;;;;;;;4347421;33;20578;-84
2021/08/11 05:04:04;;;;;;;42.38;21.45;;;;;;;;;;4333462;33;20159;-83
2021/08/11 05:06:33;;;;;;;43.40;22.83;;;;;;;;;;4360515;32;20270;-82
2021/08/11 05:09:04;;;;;;;47.92;24.25;;;;;;;;;;4348250;33;20538;-82
2021/08/11 05:14:15;;;;;;;44.88;22.02;;;;;;;;;;4348282;32;20209;-83
2021/08/11 05:17:01;;;;;;;;;;;;;;;;;;;;;
2021/08/11 05:19:32;;;;;;;39.22;21.42;;;;;;;;;;4361501;33;20197;-82
2021/08/11 05:22:08;;;;;;;47.20;21.20;;;;;;;;;;4348139;33;20529;-82
2021/08/11 05:24:33;;;;;;;45.75;25.30;;;;;;;;;;4342098;33;20449;-82
2021/08/11 05:26:58;;;;;;;43.45;22.08;;;;;;;;;;4344909;33;20213;-82
2021/08/11 05:29:24;;;;;;;46.25;22.30;;;;;;;;;;4332764;33;20167;-82
2021/08/11 05:31:49;;;;;;;44.97;23.80;;;;;;;;;;4332361;33;20194;-83
2021/08/11 05:34:14;;;;;;;44.10;24.60;;;;;;;;;;4333021;33;20155;-82
2021/08/11 05:36:47;;;;;;;41.80;21.23;;;;;;;;;;4344742;33;20234;-82
2021/08/11 05:39:12;;;;;;;45.92;21.83;;;;;;;;;;4332927;33;20167;-82
2021/08/11 05:41:37;;;;;;;39.50;19.95;;;;;;;;;;4354185;32;20201;-83
2021/08/11 05:44:04;;;;;;;42.15;22.33;;;;;;;;;;4347105;33;20572;-84
2021/08/11 05:46:32;;;;;;;36.97;21.77;;;;;;;;;;4361006;32;20178;-83
2021/08/11 05:48:57;;;;;;;38.85;21.05;;;;;;;;;;4356974;32;20175;-84
2021/08/11 05:54:18;;;;;;;;;;;;;;;;;;;;;
2021/08/11 05:57:06;;;;;;;;;;;;;;;;;;;;;
2021/08/11 05:59:35;;;;;;;36.75;20.67;;;;;;;;;;4345647;33;20152;-82
2021/08/11 06:02:00;;;;;;;35.97;20.73;;;;;;;;;;4344551;33;20164;-82
2021/08/11 06:04:27;;;;;;;36.65;19.62;;;;;;;;;;4344585;33;20162;-83
2021/08/11 06:07:12;;;;;;;28.05;17.48;;;;;;;;;;4345449;33;20143;-82
2021/08/11 06:09:37;;;;;;;34.45;19.25;;;;;;;;;;4357290;32;20541;-82
2021/08/11 06:12:03;;;;;;;30.40;18.65;;;;;;;;;;4356528;32;20186;-83
2021/08/11 06:14:40;;;;;;;30.85;17.80;;;;;;;;;;4345555;33;20132;-83
2021/08/11 06:17:26;;;;;;;29.27;17.27;;;;;;;;;;4357059;33;20495;-84
2021/08/11 06:19:59;;;;;;;31.12;18.75;;;;;;;;;;4344505;33;20164;-81
2021/08/11 06:22:32;;;;;;;29.10;16.55;;;;;;;;;;4356903;33;20265;-82
2021/08/11 06:24:57;;;;;;;30.95;16.52;;;;;;;;;;4356741;32;20147;-83
2021/08/11 06:27:22;;;;;;;27.62;16.80;;;;;;;;;;4344161;33;20503;-81
2021/08/11 06:29:53;;;;;;;25.23;15.73;;;;;;;;;;4355590;32;20203;-82
2021/08/11 06:32:24;;;;;;;33.17;17.33;;;;;;;;;;4356571;32;20163;-81
2021/08/11 06:34:59;;;;;;;29.48;15.07;;;;;;;;;;4341386;33;20221;-82
2021/08/11 06:37:30;;;;;;;28.20;16.48;;;;;;;;;;4346215;33;20513;-81
2021/08/11 06:39:59;;;;;;;31.42;16.15;;;;;;;;;;4345088;33;20225;-84
2021/08/11 06:42:24;;;;;;;24.48;15.73;;;;;;;;;;4355388;32;20159;-81
2021/08/11 06:44:49;;;;;;;26.98;14.65;;;;;;;;;;4358752;33;20253;-82
2021/08/11 06:47:36;;;;;;;28.55;14.30;;;;;;;;;;4335549;33;20159;-82
2021/08/11 06:50:07;;;;;;;24.10;13.02;;;;;;;;;;4362490;32;20225;-83
2021/08/11 06:52:33;;;;;;;32.03;14.38;;;;;;;;;;4361815;32;20554;-82
2021/08/11 06:55:04;;;;;;;24.37;14.30;;;;;;;;;;4363510;32;20131;-81
2021/08/11 06:57:30;;;;;;;21.83;13.80;;;;;;;;;;4350506;33;20202;-82
2021/08/11 06:59:55;;;;;;;25.62;13.20;;;;;;;;;;4363777;32;20576;-82
2021/08/11 07:02:21;;;;;;;20.58;13.20;;;;;;;;;;4349751;33;20182;-82
2021/08/11 07:04:46;;;;;;;26.95;14.32;;;;;;;;;;4363038;32;20150;-81
2021/08/11 07:07:11;;;;;;;25.15;12.68;;;;;;;;;;4349753;33;20159;-80
2021/08/11 07:09:36;;;;;;;22.48;13.70;;;;;;;;;;4353128;32;20255;-83
2021/08/11 07:12:03;;;;;;;18.83;12.37;;;;;;;;;;4358790;33;20163;-82
2021/08/11 07:14:29;;;;;;;26.92;13.93;;;;;;;;;;4349190;33;20238;-83
2021/08/11 07:16:54;;;;;;;20.52;11.90;;;;;;;;;;4361231;32;20206;-84
2021/08/11 07:19:23;;;;;;;19.95;12.07;;;;;;;;;;4361547;32;20600;-83
2021/08/11 07:21:48;;;;;;;23.20;12.88;;;;;;;;;;4361435;32;20182;-81
2021/08/11 07:24:13;;;;;;;19.12;11.45;;;;;;;;;;4349061;33;20190;-83
2021/08/11 07:26:39;;;;;;;23.73;12.35;;;;;;;;;;4361714;32;20194;-83
2021/08/11 07:29:04;;;;;;;21.52;12.80;;;;;;;;;;4361318;32;20181;-85
2021/08/11 07:31:33;;;;;;;21.92;12.68;;;;;;;;;;4361462;32;20195;-84
2021/08/11 07:34:02;;;;;;;25.17;12.02;;;;;;;;;;4349368;33;20667;-87
2021/08/11 07:36:50;;;;;;;23.45;12.37;;;;;;;;;;4363664;33;20150;-85
2021/08/11 07:39:42;;;;;;;21.60;10.98;;;;;;;;;;4362857;32;20151;-85
2021/08/11 07:42:08;;;;;;;23.00;10.38;;;;;;;;;;4349537;33;20201;-86
2021/08/11 07:44:39;;;;;;;20.33;10.05;;;;;;;;;;4349148;33;20159;-85
2021/08/11 07:47:21;;;;;;;16.85;9.05;;;;;;;;;;4348956;33;20167;-87
2021/08/11 07:49:46;;;;;;;18.00;9.00;;;;;;;;;;4347841;33;20246;-86
2021/08/11 07:52:20;;;;;;;19.75;8.82;;;;;;;;;;4346410;33;20183;-86
2021/08/11 07:54:56;;;;;;;14.90;8.38;;;;;;;;;;4345918;33;20558;-86
2021/08/11 07:57:33;;;;;;;13.40;8.35;;;;;;;;;;4358461;32;20210;-85
2021/08/11 07:59:59;;;;;;;16.75;6.97;;;;;;;;;;4343187;33;20237;-85
2021/08/11 08:02:27;;;;;;;14.25;7.68;;;;;;;;;;4345687;33;20159;-86
2021/08/11 08:05:12;;;;;;;;;;;;;;;;;;;;;
2021/08/11 08:07:45;;;;;;;16.40;7.78;;;;;;;;;;4358815;32;20147;-84
2021/08/11 08:10:11;;;;;;;15.93;7.65;;;;;;;;;;4358681;32;20254;-85
2021/08/11 08:12:40;;;;;;;13.60;7.12;;;;;;;;;;4358437;32;20159;-84
2021/08/11 08:15:10;;;;;;;12.65;6.75;;;;;;;;;;4358570;32;20178;-88
2021/08/11 08:17:35;;;;;;;9.77;6.35;;;;;;;;;;4345699;33;20593;-84
2021/08/11 08:20:04;;;;;;;12.73;6.72;;;;;;;;;;4346597;33;20227;-82
2021/08/11 08:22:34;;;;;;;17.42;6.62;;;;;;;;;;4347968;32;20207;-85
2021/08/11 08:24:59;;;;;;;14.93;6.75;;;;;;;;;;4346185;33;20213;-84
2021/08/11 08:27:27;;;;;;;12.90;6.93;;;;;;;;;;4346961;33;20182;-84
2021/08/11 08:29:52;;;;;;;10.15;6.00;;;;;;;;;;4344732;33;20168;-85
2021/08/11 08:32:20;;;;;;;13.80;6.55;;;;;;;;;;4344990;33;20247;-85
2021/08/11 08:34:49;;;;;;;10.43;6.03;;;;;;;;;;4346997;33;20156;-84
2021/08/11 08:37:30;;;;;;;10.10;4.40;;;;;;;;;;4345691;33;20159;-75
2021/08/11 08:40:03;;;;;;;7.78;4.12;;;;;;;;;;4345585;33;20164;-75
2021/08/11 08:42:29;;;;;;;6.50;3.28;;;;;;;;;;4345725;33;20172;-76
2021/08/11 08:44:54;;;;;;;7.53;3.60;;;;;;;;;;4334499;33;20644;-75
2021/08/11 08:47:20;;;;;;;6.15;3.75;;;;;;;;;;4336204;33;20243;-76
2021/08/11 08:49:46;;;;;;;7.32;3.33;;;;;;;;;;4330040;33;20210;-76
2021/08/11 08:52:12;;;;;;;7.25;3.80;;;;;;;;;;4329861;33;20186;-76
2021/08/11 08:54:38;;;;;;;8.48;3.97;;;;;;;;;;4332025;33;20572;-76
2021/08/11 08:57:03;;;;;;;8.02;3.72;;;;;;;;;;4333215;33;20155;-77
2021/08/11 08:59:28;;;;;;;6.97;3.40;;;;;;;;;;4340347;33;20148;-77
2021/08/11 09:01:54;;;;;;;6.70;3.62;;;;;;;;;;4331119;33;20164;-77
2021/08/11 09:04:19;;;;;;;7.05;3.65;;;;;;;;;;4339716;33;20222;-75
2021/08/11 09:06:45;;;;;;;7.18;3.50;;;;;;;;;;4329599;33;20179;-77
2021/08/11 09:09:10;;;;;;;10.98;4.10;;;;;;;;;;4330905;33;20227;-77
2021/08/11 09:11:40;;;;;;;8.05;3.95;;;;;;;;;;4332038;33;20172;-76
2021/08/11 09:14:23;;;;;;;7.93;3.37;;;;;;;;;;4330907;33;20167;-74
2021/08/11 09:16:50;;;;;;;11.90;4.18;;;;;;;;;;4346625;33;20160;-77
2021/08/11 09:19:21;;;;;;;6.32;4.07;;;;;;;;;;4327649;33;20156;-77
2021/08/11 09:22:00;;;;;;;7.90;4.20;;;;;;;;;;4336678;33;20215;-77
2021/08/11 09:24:26;;;;;;;8.00;4.10;;;;;;;;;;4346883;33;20517;-75
2021/08/11 09:26:52;;;;;;;9.48;3.62;;;;;;;;;;4348276;33;20182;-75
2021/08/11 09:29:18;;;;;;;8.88;4.32;;;;;;;;;;4347256;33;20166;-77
2021/08/11 09:31:44;;;;;;;9.13;4.50;;;;;;;;;;4347537;32;20144;-75
2021/08/11 09:34:10;;;;;;;7.78;4.93;;;;;;;;;;4354944;32;20257;-73
2021/08/11 09:36:51;;;;;;;7.07;4.40;;;;;;;;;;4345743;33;20139;-77
2021/08/11 09:39:18;;;;;;;7.72;4.20;;;;;;;;;;4344537;33;20571;-75
2021/08/11 09:41:59;;;;;;;8.40;4.70;;;;;;;;;;4345931;32;20136;-75
2021/08/11 09:44:25;;;;;;;9.30;4.53;;;;;;;;;;4345664;33;20154;-76
2021/08/11 09:46:50;;;;;;;8.13;4.60;;;;;;;;;;4345518;33;20179;-76
2021/08/11 09:49:20;;;;;;;8.25;4.15;;;;;;;;;;4356027;33;20156;-76
2021/08/11 09:51:59;;;;;;;7.28;3.70;;;;;;;;;;4361247;32;20142;-76
2021/08/11 09:54:25;;;;;;;7.03;4.00;;;;;;;;;;4346856;33;20201;-75
2021/08/11 09:56:50;;;;;;;6.87;4.05;;;;;;;;;;4347148;33;20625;-76
2021/08/11 09:59:15;;;;;;;6.22;3.20;;;;;;;;;;4347455;33;20163;-77
2021/08/11 10:01:41;;;;;;;6.45;3.70;;;;;;;;;;4346800;33;20488;-77
2021/08/11 10:04:07;;;;;;;6.22;3.87;;;;;;;;;;4347473;33;20163;-78
2021/08/11 10:06:37;;;;;;;7.60;4.00;;;;;;;;;;4347144;33;20557;-73
2021/08/11 10:09:12;;;;;;;9.43;4.68;;;;;;;;;;4347084;33;20237;-76
2021/08/11 10:11:39;;;;;;;8.82;4.80;;;;;;;;;;4360560;32;20230;-77
2021/08/11 10:14:08;;;;;;;8.68;4.65;;;;;;;;;;4359028;33;20527;-78
2021/08/11 10:16:33;;;;;;;10.30;4.50;;;;;;;;;;4360775;32;20135;-76
2021/08/11 10:19:00;;;;;;;8.20;4.30;;;;;;;;;;4346867;33;20159;-77
2021/08/11 10:21:27;;;;;;;8.48;4.15;;;;;;;;;;4359126;32;20167;-75
2021/08/11 10:23:52;;;;;;;9.30;4.70;;;;;;;;;;4347032;33;20162;-77
2021/08/11 10:26:18;;;;;;;9.48;5.25;;;;;;;;;;4359706;32;20185;-76
2021/08/11 10:28:45;;;;;;;9.52;4.30;;;;;;;;;;4363352;32;20186;-74
2021/08/11 10:31:10;;;;;;;8.27;4.53;;;;;;;;;;4371340;32;20641;-76
2021/08/11 10:33:36;;;;;;;8.77;4.75;;;;;;;;;;4340873;33;20247;-77
2021/08/11 10:36:01;;;;;;;8.77;4.90;;;;;;;;;;4356953;32;20186;-75
2021/08/11 10:38:27;;;;;;;8.30;4.65;;;;;;;;;;4366628;32;20159;-75
2021/08/11 10:40:53;;;;;;;7.45;3.95;;;;;;;;;;4358567;33;20517;-76
2021/08/11 10:43:19;;;;;;;5.55;3.50;;;;;;;;;;4358491;33;20236;-78
2021/08/11 10:45:52;;;;;;;7.80;3.60;;;;;;;;;;4358692;33;20585;-76
2021/08/11 10:48:18;;;;;;;7.50;3.62;;;;;;;;;;4345596;33;20616;-75
2021/08/11 10:50:46;;;;;;;8.05;4.22;;;;;;;;;;4359289;33;20156;-76
2021/08/11 10:53:14;;;;;;;6.72;3.30;;;;;;;;;;4346032;33;20177;-76
2021/08/11 10:55:43;;;;;;;7.22;3.92;;;;;;;;;;4346756;33;20222;-73
2021/08/11 10:58:09;;;;;;;7.65;3.55;;;;;;;;;;4340304;33;20593;-76
2021/08/11 11:00:40;;;;;;;7.75;3.37;;;;;;;;;;4359742;33;20154;-76
2021/08/11 11:03:05;;;;;;;6.78;3.37;;;;;;;;;;4358766;32;20154;-76
2021/08/11 11:05:33;;;;;;;7.65;3.72;;;;;;;;;;4346811;33;20186;-75
2021/08/11 11:08:14;;;;;;;6.97;3.08;;;;;;;;;;4352300;33;20217;-78
2021/08/11 11:10:41;;;;;;;4.55;2.80;;;;;;;;;;4346420;33;20252;-76
2021/08/11 11:13:33;;;;;;;6.53;3.00;;;;;;;;;;4359656;33;20178;-74
2021/08/11 11:16:01;;;;;;;6.97;2.90;;;;;;;;;;4359089;33;20151;-75
2021/08/11 11:18:26;;;;;;;4.57;3.08;;;;;;;;;;4359921;33;20213;-77
2021/08/11 11:20:55;;;;;;;7.22;3.50;;;;;;;;;;4369648;32;20175;-77
2021/08/11 11:23:50;;;;;;;6.30;3.22;;;;;;;;;;4346279;33;20198;-77
2021/08/11 11:26:15;;;;;;;7.97;3.65;;;;;;;;;;4354973;33;20163;-73
2021/08/11 11:28:53;;;;;;;7.70;3.85;;;;;;;;;;4346517;32;20220;-77
2021/08/11 11:31:37;;;;;;;5.28;3.85;;;;;;;;;;4348755;33;20143;-76
2021/08/11 11:34:18;;;;;;;6.10;4.00;;;;;;;;;;4347054;32;20185;-77
2021/08/11 11:36:44;;;;;;;6.93;4.03;;;;;;;;;;4346288;33;20177;-76
2021/08/11 11:39:12;;;;;;;7.57;3.70;;;;;;;;;;4349039;32;20167;-77
2021/08/11 11:41:39;;;;;;;6.40;3.12;;;;;;;;;;4362161;32;20190;-77
2021/08/11 11:44:39;;;;;;;7.20;3.78;;;;;;;;;;4362084;32;20140;-76
2021/08/11 11:47:05;;;;;;;6.55;3.80;;;;;;;;;;4318403;33;20219;-74
2021/08/11 11:49:33;;;;;;;6.60;3.30;;;;;;;;;;4341975;33;20581;-77
2021/08/11 11:52:01;;;;;;;6.80;3.65;;;;;;;;;;4362247;32;20139;-78
2021/08/11 11:54:26;;;;;;;9.32;4.70;;;;;;;;;;4360572;32;20647;-77
2021/08/11 11:56:52;;;;;;;6.43;3.70;;;;;;;;;;4362186;32;20158;-74
2021/08/11 11:59:17;;;;;;;5.80;3.40;;;;;;;;;;4348624;32;20159;-76
2021/08/11 12:01:43;;;;;;;7.07;3.97;;;;;;;;;;4360865;32;20159;-77
2021/08/11 12:04:09;;;;;;;7.22;3.53;;;;;;;;;;4348820;33;20183;-79
2021/08/11 12:06:36;;;;;;;8.00;3.55;;;;;;;;;;4362909;32;20173;-77
2021/08/11 12:09:01;;;;;;;5.68;3.72;;;;;;;;;;4348497;33;20156;-78
2021/08/11 12:11:27;;;;;;;6.55;3.37;;;;;;;;;;4360813;32;20189;-77
2021/08/11 12:13:54;;;;;;;5.12;3.45;;;;;;;;;;4349066;33;20645;-77
2021/08/11 12:16:20;;;;;;;6.50;3.62;;;;;;;;;;4360831;32;20191;-77
2021/08/11 12:18:47;;;;;;;6.20;3.28;;;;;;;;;;4370395;32;20237;-77
2021/08/11 12:21:13;;;;;;;5.90;3.58;;;;;;;;;;4359875;32;20168;-79
2021/08/11 12:23:38;;;;;;;6.10;3.47;;;;;;;;;;4361815;32;20273;-80
2021/08/11 12:26:05;;;;;;;5.03;3.10;;;;;;;;;;4355616;32;20140;-79
2021/08/11 12:28:34;;;;;;;6.40;3.83;;;;;;;;;;4350494;32;20206;-78
2021/08/11 12:31:02;;;;;;;6.15;3.40;;;;;;;;;;4360696;32;20203;-77
2021/08/11 12:33:28;;;;;;;5.35;3.20;;;;;;;;;;4360015;33;20543;-79
2021/08/11 12:35:54;;;;;;;5.95;3.05;;;;;;;;;;4360687;32;20206;-79
2021/08/11 12:38:27;;;;;;;6.25;3.20;;;;;;;;;;4362395;32;20514;-79
2021/08/11 12:40:52;;;;;;;8.48;3.33;;;;;;;;;;4347902;32;20220;-79
2021/08/11 12:43:17;;;;;;;8.13;3.30;;;;;;;;;;4361830;32;20143;-77
2021/08/11 12:45:44;;;;;;;6.40;3.60;;;;;;;;;;4362246;32;20521;-75
2021/08/11 12:48:21;;;;;;;5.35;3.60;;;;;;;;;;4347457;33;20701;-78
2021/08/11 12:50:47;;;;;;;6.05;3.35;;;;;;;;;;4360034;32;20163;-79
2021/08/11 12:53:24;;;;;;;7.37;3.53;;;;;;;;;;4361067;32;20190;-79
2021/08/11 12:56:03;;;;;;;6.85;3.45;;;;;;;;;;4359942;33;20166;-79
2021/08/11 12:58:48;;;;;;;6.22;3.08;;;;;;;;;;4360625;33;20167;-78
2021/08/11 13:01:34;;;;;;;5.07;4.10;;;;;;;;;;4361212;32;20171;-79
2021/08/11 13:03:59;;;;;;;7.60;4.30;;;;;;;;;;4361331;33;20200;-78
2021/08/11 13:06:35;;;;;;;6.65;3.40;;;;;;;;;;4360517;32;20576;-77
2021/08/11 13:09:01;;;;;;;9.63;3.50;;;;;;;;;;4359874;33;20248;-78
2021/08/11 13:11:45;;;;;;;8.02;3.50;;;;;;;;;;4359718;32;20187;-76
2021/08/11 13:14:10;;;;;;;7.37;3.45;;;;;;;;;;4361056;32;20259;-79
2021/08/11 13:16:35;;;;;;;8.07;4.43;;;;;;;;;;4360407;32;20581;-78
2021/08/11 13:19:17;;;;;;;5.28;3.40;;;;;;;;;;4359571;33;20567;-80
2021/08/11 13:21:42;;;;;;;5.43;3.50;;;;;;;;;;4359819;32;20152;-81
2021/08/11 13:24:07;;;;;;;4.95;3.03;;;;;;;;;;4359862;32;20163;-79
2021/08/11 13:26:35;;;;;;;6.62;3.58;;;;;;;;;;4358405;32;20234;-79
2021/08/11 13:29:01;;;;;;;7.05;3.75;;;;;;;;;;4349577;33;20159;-80
2021/08/11 13:31:26;;;;;;;8.63;3.47;;;;;;;;;;4344507;32;20167;-80
2021/08/11 13:33:51;;;;;;;7.15;4.05;;;;;;;;;;4356761;32;20171;-79
2021/08/11 13:36:16;;;;;;;6.63;3.80;;;;;;;;;;4366068;32;20516;-75
2021/08/11 13:38:41;;;;;;;7.90;3.65;;;;;;;;;;4361266;32;20266;-79
2021/08/11 13:41:07;;;;;;;4.10;2.70;;;;;;;;;;4359453;32;20167;-76
2021/08/11 13:43:33;;;;;;;5.47;3.22;;;;;;;;;;4359708;32;20260;-79
2021/08/11 13:45:59;;;;;;;7.03;3.80;;;;;;;;;;4359849;32;20236;-77
2021/08/11 13:48:26;;;;;;;4.43;3.00;;;;;;;;;;4371578;32;20238;-78
2021/08/11 13:50:51;;;;;;;7.32;3.47;;;;;;;;;;4359754;32;20186;-78
2021/08/11 13:53:19;;;;;;;7.45;3.53;;;;;;;;;;4359071;32;20156;-77
2021/08/11 13:55:44;;;;;;;5.07;3.95;;;;;;;;;;4359056;32;20155;-79
2021/08/11 13:58:10;;;;;;;7.30;4.10;;;;;;;;;;4360156;32;20162;-80
2021/08/11 14:00:35;;;;;;;8.85;3.60;;;;;;;;;;4371842;32;20732;-79
2021/08/11 14:03:00;;;;;;;6.05;3.70;;;;;;;;;;4359086;32;20163;-78
2021/08/11 14:05:26;;;;;;;6.35;3.75;;;;;;;;;;4359831;32;20159;-77
2021/08/11 14:07:51;;;;;;;6.70;3.83;;;;;;;;;;4359002;32;20175;-79
2021/08/11 14:10:16;;;;;;;7.62;3.92;;;;;;;;;;4359395;32;20168;-77
2021/08/11 14:12:42;;;;;;;7.45;4.25;;;;;;;;;;4359004;33;20186;-78
2021/08/11 14:15:07;;;;;;;6.45;4.32;;;;;;;;;;4359116;32;20166;-78
2021/08/11 14:17:33;;;;;;;7.25;3.95;;;;;;;;;;4357725;32;20558;-78
2021/08/11 14:19:59;;;;;;;7.28;3.95;;;;;;;;;;4338574;33;20620;-79
2021/08/11 14:22:24;;;;;;;6.93;3.85;;;;;;;;;;4333062;33;20593;-79
2021/08/11 14:24:49;;;;;;;7.83;3.97;;;;;;;;;;4346387;33;20325;-80
2021/08/11 14:27:15;;;;;;;5.93;3.95;;;;;;;;;;4341850;33;20331;-78
2021/08/11 14:29:40;;;;;;;7.05;4.50;;;;;;;;;;4359235;33;20171;-78
2021/08/11 14:32:05;;;;;;;9.68;6.25;;;;;;;;;;4346839;33;20166;-80
2021/08/11 14:34:31;;;;;;;8.93;5.57;;;;;;;;;;4345716;33;20608;-79
2021/08/11 14:36:56;;;;;;;5.25;3.67;;;;;;;;;;4346370;33;20235;-79
2021/08/11 14:39:21;;;;;;;5.57;3.60;;;;;;;;;;4346788;33;20163;-78
2021/08/11 14:41:46;;;;;;;7.50;4.55;;;;;;;;;;4346215;33;20242;-78
2021/08/11 14:44:11;;;;;;;6.40;4.07;;;;;;;;;;4346676;33;20163;-76
2021/08/11 14:46:37;;;;;;;6.97;4.07;;;;;;;;;;4346010;33;20255;-77
2021/08/11 14:49:02;;;;;;;6.47;3.80;;;;;;;;;;4346119;33;20642;-79